createdAt,value
2018-07-16T00:01:55.403Z,58.03
2018-07-16T00:04:27.027Z,57.23
2018-07-16T00:06:57.779Z,57.49
2018-07-16T00:09:29.699Z,57.78
2018-07-16T00:12:01.552Z,56.63
2018-07-16T00:14:32.681Z,56.54
2018-07-16T00:17:03.518Z,56.57
2018-07-16T00:19:36.116Z,56.76
2018-07-16T00:22:07.137Z,56.36
2018-07-16T00:24:38.187Z,56.46
2018-07-16T00:27:10.246Z,56.75
2018-07-16T00:29:41.328Z,57.56
2018-07-16T00:32:14.300Z,56.31
2018-07-16T00:34:47.385Z,56.54
2018-07-16T00:37:18.416Z,56.49
2018-07-16T00:39:50.209Z,56.74
2018-07-16T00:42:20.996Z,57.39
2018-07-16T00:44:52.115Z,56.95
2018-07-16T00:47:22.981Z,58.85
2018-07-16T00:49:55.529Z,61.63
2018-07-16T00:52:26.709Z,62.84
2018-07-16T00:54:58.851Z,63.98
2018-07-16T00:57:31.093Z,64.71
2018-07-16T01:00:02.559Z,64.62
2018-07-16T01:02:33.644Z,64.10
2018-07-16T01:05:05.580Z,62.91
2018-07-16T01:07:36.650Z,61.89
2018-07-16T01:10:07.617Z,61.93
2018-07-16T01:12:38.826Z,62.01
2018-07-16T01:15:10.408Z,61.42
2018-07-16T01:17:42.590Z,61.83
2018-07-16T01:20:14.381Z,62.43
2018-07-16T01:22:45.792Z,61.89
2018-07-16T01:25:16.731Z,61.98
2018-07-16T01:27:47.768Z,61.95
2018-07-16T01:30:18.633Z,62.39
2018-07-16T01:32:51.681Z,62.16
2018-07-16T01:35:23.584Z,62.53
2018-07-16T01:37:55.917Z,63.27
2018-07-16T01:40:28.914Z,63.07
2018-07-16T01:43:00.042Z,63.19
2018-07-16T01:45:32.237Z,63.73
2018-07-16T01:48:03.776Z,64.05
2018-07-16T01:50:35.677Z,65.47
2018-07-16T01:53:06.721Z,66.97
2018-07-16T01:55:37.650Z,68.94
2018-07-16T01:58:08.955Z,69.48
2018-07-16T02:00:50.451Z,69.07
2018-07-16T02:03:22.251Z,67.79
2018-07-16T02:05:54.169Z,66.73
2018-07-16T02:08:25.951Z,66.14
2018-07-16T02:10:58.017Z,66.36
2018-07-16T02:13:29.024Z,67.43
2018-07-16T02:16:00.111Z,67.62
2018-07-16T02:18:31.078Z,67.21
2018-07-16T02:21:02.885Z,67.96
2018-07-16T02:23:34.854Z,69.24
2018-07-16T02:26:07.689Z,69.37
2018-07-16T02:28:38.781Z,69.37
2018-07-16T02:31:09.850Z,70.03
2018-07-16T02:33:40.834Z,70.72
2018-07-16T02:36:13.419Z,70.92
2018-07-16T02:38:44.893Z,70.39
2018-07-16T02:41:16.936Z,69.63
2018-07-16T02:43:48.669Z,69.03
2018-07-16T02:46:20.359Z,69.58
2018-07-16T02:48:51.496Z,69.37
2018-07-16T02:51:23.302Z,69.09
2018-07-16T02:53:54.584Z,69.35
2018-07-16T02:56:25.717Z,68.87
2018-07-16T02:58:58.210Z,69.22
2018-07-16T03:01:29.247Z,68.77
2018-07-16T03:04:00.381Z,69.67
2018-07-16T03:06:31.334Z,69.32
2018-07-16T03:09:02.360Z,68.84
2018-07-16T03:11:33.353Z,67.94
2018-07-16T03:14:04.930Z,66.65
2018-07-16T03:16:35.863Z,66.63
2018-07-16T03:19:06.933Z,66.03
2018-07-16T03:21:38.808Z,66.61
2018-07-16T03:24:09.961Z,66.58
2018-07-16T03:26:40.922Z,66.75
2018-07-16T03:29:12.212Z,66.36
2018-07-16T03:31:43.998Z,65.27
2018-07-16T03:34:15.097Z,65.33
2018-07-16T03:36:46.872Z,64.64
2018-07-16T03:39:17.822Z,63.13
2018-07-16T03:41:48.692Z,61.79
2018-07-16T03:44:21.001Z,57.72
2018-07-16T03:46:52.272Z,56.02
2018-07-16T03:49:23.245Z,53.39
2018-07-16T03:51:58.434Z,50.88
2018-07-16T03:54:29.503Z,50.62
2018-07-16T03:57:00.687Z,50.53
2018-07-16T03:59:31.628Z,47.88
2018-07-16T04:02:03.483Z,46.44
2018-07-16T04:04:35.342Z,44.50
2018-07-16T04:07:07.374Z,43.53
2018-07-16T04:09:38.262Z,44.95
2018-07-16T04:12:10.312Z,43.12
2018-07-16T04:14:41.096Z,43.21
2018-07-16T04:17:12.576Z,43.56
2018-07-16T04:19:44.432Z,42.19
2018-07-16T04:22:16.512Z,43.74
2018-07-16T04:24:47.213Z,44.75
2018-07-16T04:27:18.531Z,43.70
2018-07-16T04:29:49.361Z,42.18
2018-07-16T04:32:20.178Z,43.66
2018-07-16T04:34:51.089Z,45.37
2018-07-16T04:37:23.471Z,43.38
2018-07-16T04:39:54.477Z,40.37
2018-07-16T04:42:25.452Z,39.67
2018-07-16T04:44:56.990Z,37.15
2018-07-16T04:47:28.800Z,33.76
2018-07-16T04:49:59.656Z,33.17
2018-07-16T04:52:31.344Z,30.09
2018-07-16T04:55:02.098Z,31.59
2018-07-16T04:57:34.943Z,33.94
2018-07-16T05:00:38.098Z,35.10
2018-07-16T05:03:11.068Z,32.52
2018-07-16T05:05:43.040Z,31.61
2018-07-16T05:08:15.273Z,30.23
2018-07-16T05:10:47.867Z,31.32
2018-07-16T05:13:19.019Z,30.22
2018-07-16T05:15:50.358Z,29.63
2018-07-16T05:18:21.460Z,28.04
2018-07-16T05:20:53.302Z,26.42
2018-07-16T05:23:25.837Z,26.54
2018-07-16T05:25:58.083Z,24.67
2018-07-16T05:28:29.952Z,24.34
2018-07-16T05:31:01.840Z,26.33
2018-07-16T05:33:32.772Z,26.22
2018-07-16T05:36:04.225Z,24.61
2018-07-16T05:38:35.686Z,23.07
2018-07-16T05:41:08.271Z,22.43
2018-07-16T05:43:39.818Z,23.87
2018-07-16T05:46:11.741Z,23.35
2018-07-16T05:48:42.949Z,22.63
2018-07-16T05:51:13.993Z,22.35
2018-07-16T05:53:44.990Z,21.72
2018-07-16T05:56:17.776Z,20.97
2018-07-16T05:58:50.118Z,22.34
2018-07-16T06:01:21.895Z,22.17
2018-07-16T06:03:53.085Z,21.22
2018-07-16T06:06:24.754Z,21.52
2018-07-16T06:08:56.095Z,20.93
2018-07-16T06:11:29.279Z,20.80
2018-07-16T06:14:00.116Z,20.53
2018-07-16T06:16:33.319Z,21.50
2018-07-16T06:19:04.860Z,21.48
2018-07-16T06:21:37.009Z,21.38
2018-07-16T06:24:08.872Z,20.62
2018-07-16T06:26:40.550Z,19.54
2018-07-16T06:29:11.517Z,19.76
2018-07-16T06:31:42.813Z,22.39
2018-07-16T06:34:13.731Z,23.73
2018-07-16T06:36:44.705Z,21.56
2018-07-16T06:39:15.621Z,22.75
2018-07-16T06:41:47.637Z,22.06
2018-07-16T06:44:18.654Z,25.34
2018-07-16T06:46:50.420Z,23.46
2018-07-16T06:49:21.406Z,23.39
2018-07-16T06:51:53.348Z,22.50
2018-07-16T06:54:24.389Z,21.73
2018-07-16T06:56:55.583Z,21.81
2018-07-16T06:59:26.921Z,20.90
2018-07-16T07:02:00.257Z,21.64
2018-07-16T07:04:31.597Z,20.50
2018-07-16T07:07:02.624Z,20.48
2018-07-16T07:09:34.367Z,20.60
2018-07-16T07:12:05.435Z,21.23
2018-07-16T07:14:36.561Z,21.80
2018-07-16T07:17:08.116Z,22.52
2018-07-16T07:19:39.276Z,22.79
2018-07-16T07:22:10.961Z,21.70
2018-07-16T07:24:41.851Z,22.08
2018-07-16T07:27:13.782Z,21.25
2018-07-16T07:29:45.136Z,21.62
2018-07-16T07:32:16.360Z,21.45
2018-07-16T07:34:47.347Z,21.72
2018-07-16T07:37:18.314Z,21.31
2018-07-16T07:39:49.712Z,22.76
2018-07-16T07:42:20.854Z,21.17
2018-07-16T07:44:52.276Z,22.19
2018-07-16T07:47:23.665Z,21.07
2018-07-16T07:49:57.931Z,20.98
2018-07-16T07:52:29.139Z,22.40
2018-07-16T07:55:03.379Z,25.78
2018-07-16T07:57:34.280Z,26.16
2018-07-16T08:00:07.455Z,28.19
2018-07-16T08:02:39.583Z,26.69
2018-07-16T08:05:10.661Z,25.77
2018-07-16T08:07:41.824Z,30.19
2018-07-16T08:10:13.446Z,31.41
2018-07-16T08:12:48.250Z,32.77
2018-07-16T08:15:19.841Z,34.30
2018-07-16T08:17:51.670Z,36.01
2018-07-16T08:20:22.438Z,37.69
2018-07-16T08:22:53.500Z,39.31
2018-07-16T08:25:24.686Z,40.11
2018-07-16T08:27:56.453Z,40.88
2018-07-16T08:30:28.323Z,40.61
2018-07-16T08:33:00.246Z,39.50
2018-07-16T08:35:31.505Z,36.42
2018-07-16T08:38:02.504Z,37.26
2018-07-16T08:40:33.779Z,39.01
2018-07-16T08:43:04.670Z,39.80
2018-07-16T08:45:35.673Z,38.48
2018-07-16T08:48:07.225Z,37.53
2018-07-16T08:50:37.994Z,36.34
2018-07-16T08:53:08.937Z,36.74
2018-07-16T08:55:40.054Z,36.01
2018-07-16T08:58:11.297Z,37.61
2018-07-16T09:00:43.246Z,37.51
2018-07-16T09:03:15.482Z,37.74
2018-07-16T09:05:51.946Z,38.02
2018-07-16T09:08:22.845Z,37.45
2018-07-16T09:10:54.116Z,36.57
2018-07-16T09:13:25.300Z,36.46
2018-07-16T09:15:56.314Z,33.84
2018-07-16T09:18:27.130Z,36.14
2018-07-16T09:20:58.236Z,34.97
2018-07-16T09:23:30.557Z,34.28
2018-07-16T09:26:01.642Z,36.23
2018-07-16T09:28:33.508Z,34.69
2018-07-16T09:31:04.567Z,32.97
2018-07-16T09:33:36.125Z,35.43
2018-07-16T09:36:07.222Z,36.03
2018-07-16T09:38:38.658Z,35.78
2018-07-16T09:41:09.593Z,36.30
2018-07-16T09:43:40.900Z,36.71
2018-07-16T09:46:11.912Z,37.53
2018-07-16T09:48:42.840Z,36.75
2018-07-16T09:51:13.922Z,36.11
2018-07-16T09:53:45.541Z,35.79
2018-07-16T09:56:17.364Z,34.99
2018-07-16T09:58:48.504Z,35.68
2018-07-16T10:01:24.310Z,34.95
2018-07-16T10:03:55.290Z,32.66
2018-07-16T10:06:26.176Z,31.81
2018-07-16T10:08:58.681Z,32.34
2018-07-16T10:11:29.815Z,34.04
2018-07-16T10:14:00.862Z,33.43
2018-07-16T10:16:32.313Z,32.93
2018-07-16T10:19:03.384Z,33.10
2018-07-16T10:21:34.562Z,32.97
2018-07-16T10:24:05.663Z,32.76
2018-07-16T10:26:51.873Z,32.50
2018-07-16T10:29:28.991Z,34.00
2018-07-16T10:32:00.254Z,34.63
2018-07-16T10:34:31.285Z,33.83
2018-07-16T10:37:02.318Z,34.56
2018-07-16T10:39:33.121Z,34.85
2018-07-16T10:42:05.403Z,34.38
2018-07-16T10:44:36.497Z,33.29
2018-07-16T10:47:07.335Z,34.19
2018-07-16T10:49:39.673Z,35.50
2018-07-16T10:52:11.146Z,34.62
2018-07-16T10:54:42.961Z,33.20
2018-07-16T10:57:13.966Z,34.48
2018-07-16T10:59:45.638Z,32.09
2018-07-16T11:02:16.856Z,32.08
2018-07-16T11:04:47.877Z,34.34
2018-07-16T11:07:19.668Z,34.61
2018-07-16T11:09:51.050Z,32.75
2018-07-16T11:12:22.157Z,33.77
2018-07-16T11:14:53.020Z,33.48
2018-07-16T11:17:24.911Z,34.49
2018-07-16T11:19:55.850Z,34.88
2018-07-16T11:22:26.636Z,35.19
2018-07-16T11:24:58.461Z,34.80
2018-07-16T11:27:29.549Z,34.36
2018-07-16T11:30:01.375Z,34.37
2018-07-16T11:32:33.340Z,35.35
2018-07-16T11:35:05.635Z,34.31
2018-07-16T11:37:38.185Z,33.93
2018-07-16T11:40:09.000Z,34.93
2018-07-16T11:42:40.082Z,33.84
2018-07-16T11:45:11.280Z,32.39
2018-07-16T11:47:42.271Z,31.65
2018-07-16T11:50:14.399Z,31.28
2018-07-16T11:52:45.265Z,33.01
2018-07-16T11:55:16.269Z,31.92
2018-07-16T11:57:47.435Z,33.77
2018-07-16T12:00:19.560Z,33.33
2018-07-16T12:02:50.603Z,33.64
2018-07-16T12:05:22.757Z,33.00
2018-07-16T12:07:53.845Z,31.41
2018-07-16T12:10:27.037Z,31.83
2018-07-16T12:12:59.605Z,32.91
2018-07-16T12:15:32.231Z,33.94
2018-07-16T12:18:03.010Z,34.58
2018-07-16T12:20:35.455Z,34.51
2018-07-16T12:23:07.180Z,34.12
2018-07-16T12:25:39.307Z,34.64
2018-07-16T12:28:10.362Z,35.19
2018-07-16T12:30:41.329Z,35.30
2018-07-16T12:33:12.134Z,35.49
2018-07-16T12:35:43.863Z,34.27
2018-07-16T12:38:14.832Z,35.36
2018-07-16T12:40:45.982Z,35.22
2018-07-16T12:43:16.824Z,34.37
2018-07-16T12:45:47.808Z,35.11
2018-07-16T12:48:18.894Z,35.15
2018-07-16T12:50:49.928Z,35.62
2018-07-16T12:53:20.872Z,35.24
2018-07-16T12:55:51.820Z,35.80
2018-07-16T12:58:22.670Z,35.92
2018-07-16T13:00:54.313Z,35.31
2018-07-16T13:03:26.417Z,35.29
2018-07-16T13:05:58.240Z,35.85
2018-07-16T13:08:28.932Z,35.85
2018-07-16T13:11:01.637Z,34.68
2018-07-16T13:13:32.542Z,35.18
2018-07-16T13:16:03.251Z,35.94
2018-07-16T13:18:34.487Z,35.04
2018-07-16T13:21:06.924Z,34.82
2018-07-16T13:23:37.926Z,36.18
2018-07-16T13:26:09.009Z,36.34
2018-07-16T13:28:39.799Z,37.35
2018-07-16T13:31:11.234Z,37.11
2018-07-16T13:33:42.526Z,36.59
2018-07-16T13:36:13.520Z,36.80
2018-07-16T13:38:44.471Z,36.46
2018-07-16T13:41:16.314Z,36.26
2018-07-16T13:43:47.403Z,36.07
2018-07-16T13:46:18.780Z,35.16
2018-07-16T13:48:49.598Z,37.07
2018-07-16T13:51:20.565Z,37.19
2018-07-16T13:53:51.355Z,36.87
2018-07-16T13:56:22.303Z,35.40
2018-07-16T13:58:54.102Z,36.31
2018-07-16T14:01:26.167Z,34.89
2018-07-16T14:03:57.370Z,35.43
2018-07-16T14:06:29.095Z,34.80
2018-07-16T14:09:00.236Z,34.67
2018-07-16T14:11:34.166Z,35.53
2018-07-16T14:14:05.474Z,35.55
2018-07-16T14:16:37.532Z,36.79
2018-07-16T14:19:08.612Z,36.21
2018-07-16T14:21:39.727Z,36.51
2018-07-16T14:24:10.732Z,34.95
2018-07-16T14:26:42.219Z,36.69
2018-07-16T14:29:13.317Z,35.92
2018-07-16T14:31:44.785Z,36.21
2018-07-16T14:34:16.017Z,34.90
2018-07-16T14:36:48.143Z,36.10
2018-07-16T14:39:19.376Z,35.50
2018-07-16T14:41:50.308Z,36.49
2018-07-16T14:44:21.301Z,35.59
2018-07-16T14:46:52.428Z,37.24
2018-07-16T14:49:26.699Z,36.90
2018-07-16T14:51:57.647Z,36.53
2018-07-16T14:54:28.722Z,35.04
2018-07-16T14:56:59.871Z,35.93
2018-07-16T14:59:30.906Z,36.06
2018-07-16T15:02:02.256Z,36.03
2018-07-16T15:04:33.087Z,36.13
2018-07-16T15:07:04.832Z,36.64
2018-07-16T15:09:36.385Z,36.16
2018-07-16T15:12:07.627Z,36.70
2018-07-16T15:14:38.556Z,36.47
2018-07-16T15:17:09.591Z,35.82
2018-07-16T15:19:40.392Z,35.93
2018-07-16T15:22:11.500Z,36.86
2018-07-16T15:24:43.522Z,36.86
2018-07-16T15:27:14.874Z,37.07
2018-07-16T15:29:45.988Z,36.30
2018-07-16T15:32:16.903Z,37.49
2018-07-16T15:34:47.792Z,37.26
2018-07-16T15:37:20.368Z,36.56
2018-07-16T15:39:51.524Z,36.44
2018-07-16T15:42:22.675Z,36.80
2018-07-16T15:44:55.038Z,37.18
2018-07-16T15:47:26.090Z,37.40
2018-07-16T15:49:57.241Z,36.47
2018-07-16T15:52:28.515Z,36.83
2018-07-16T15:55:01.101Z,37.73
2018-07-16T15:57:32.143Z,37.05
2018-07-16T16:00:03.696Z,38.87
2018-07-16T16:02:36.763Z,39.08
2018-07-16T16:05:08.219Z,39.89
2018-07-16T16:07:40.075Z,38.06
2018-07-16T16:10:11.516Z,37.89
2018-07-16T16:12:43.897Z,38.77
2018-07-16T16:15:18.930Z,38.30
2018-07-16T16:17:50.239Z,39.68
2018-07-16T16:20:22.605Z,40.21
2018-07-16T16:22:54.437Z,39.72
2018-07-16T16:25:26.493Z,38.87
2018-07-16T16:27:58.937Z,39.96
2018-07-16T16:30:32.008Z,40.17
2018-07-16T16:33:04.144Z,41.18
2018-07-16T16:35:35.676Z,40.13
2018-07-16T16:38:07.670Z,40.09
2018-07-16T16:40:42.100Z,40.43
2018-07-16T16:43:13.895Z,41.75
2018-07-16T16:45:47.061Z,41.79
2018-07-16T16:48:19.027Z,40.89
2018-07-16T16:50:50.768Z,41.62
2018-07-16T16:53:21.978Z,40.98
2018-07-16T16:55:56.819Z,42.28
2018-07-16T16:58:31.179Z,41.69
2018-07-16T17:01:02.557Z,42.05
2018-07-16T17:03:34.926Z,42.29
2018-07-16T17:06:07.404Z,41.62
2018-07-16T17:08:41.653Z,42.95
2018-07-16T17:11:13.590Z,43.24
2018-07-16T17:13:44.804Z,43.02
2018-07-16T17:16:15.893Z,43.63
2018-07-16T17:18:47.354Z,44.48
2018-07-16T17:21:18.809Z,44.88
2018-07-16T17:23:50.805Z,44.64
2018-07-16T17:26:22.839Z,44.96
2018-07-16T17:28:54.649Z,45.65
2018-07-16T17:31:27.023Z,45.65
2018-07-16T17:33:58.169Z,47.23
2018-07-16T17:36:29.658Z,47.18
2018-07-16T17:39:15.048Z,48.19
2018-07-16T17:41:48.067Z,48.46
2018-07-16T17:44:20.130Z,49.10
2018-07-16T17:46:51.560Z,48.77
2018-07-16T17:49:23.730Z,49.97
2018-07-16T17:51:57.363Z,48.80
2018-07-16T17:54:28.609Z,49.11
2018-07-16T17:57:00.186Z,50.36
2018-07-16T17:59:39.491Z,50.03
2018-07-16T18:02:13.068Z,51.73
2018-07-16T18:04:45.494Z,51.39
2018-07-16T18:07:24.543Z,51.61
2018-07-16T18:09:57.288Z,50.37
2018-07-16T18:12:28.932Z,51.46
2018-07-16T18:15:03.753Z,51.66
2018-07-16T18:17:35.494Z,51.05
2018-07-16T18:20:08.005Z,51.58
2018-07-16T18:22:42.489Z,50.96
2018-07-16T18:25:17.218Z,51.48
2018-07-16T18:27:52.443Z,51.28
2018-07-16T18:30:23.306Z,53.66
2018-07-16T18:32:58.887Z,53.49
2018-07-16T18:35:34.820Z,54.45
2018-07-16T18:38:09.772Z,53.68
2018-07-16T18:40:42.467Z,53.99
2018-07-16T18:43:14.579Z,54.33
2018-07-16T18:45:48.928Z,54.28
2018-07-16T18:48:22.284Z,55.02
2018-07-16T18:53:37.490Z,55.45
2018-07-16T18:58:46.809Z,55.22
2018-07-16T19:01:21.876Z,55.74
2018-07-16T19:03:56.279Z,56.17
2018-07-16T19:06:38.280Z,56.43
2018-07-16T19:09:11.359Z,56.69
2018-07-16T19:11:43.550Z,56.90
2018-07-16T19:14:16.019Z,57.37
2018-07-16T19:16:47.830Z,57.25
2018-07-16T19:19:19.344Z,55.54
2018-07-16T19:21:50.459Z,55.42
2018-07-16T19:24:23.221Z,55.24
2018-07-16T19:26:56.930Z,55.86
2018-07-16T19:29:33.196Z,54.99
2018-07-16T19:32:05.777Z,55.46
2018-07-16T19:34:38.647Z,55.35
2018-07-16T19:37:11.464Z,54.70
2018-07-16T19:39:43.752Z,55.05
2018-07-16T19:42:16.412Z,54.69
2018-07-16T19:44:50.997Z,53.72
2018-07-16T19:47:22.907Z,53.61
2018-07-16T19:49:54.177Z,53.40
2018-07-16T19:52:25.520Z,54.08
2018-07-16T19:54:57.530Z,55.15
2018-07-16T19:57:28.602Z,55.33
2018-07-16T20:00:00.742Z,56.38
2018-07-16T20:02:34.754Z,55.05
2018-07-16T20:08:15.125Z,54.69
2018-07-16T20:10:46.349Z,54.82
2018-07-16T20:13:17.721Z,54.71
2018-07-16T20:17:25.226Z,55.15
2018-07-16T20:19:57.787Z,54.33
2018-07-16T20:22:29.275Z,54.43
2018-07-16T20:25:00.382Z,55.12
2018-07-16T20:27:32.363Z,56.02
2018-07-16T20:30:07.100Z,56.17
2018-07-16T20:32:39.440Z,57.12
2018-07-16T20:35:11.167Z,57.38
2018-07-16T20:37:47.199Z,57.41
2018-07-16T20:40:23.220Z,57.58
2018-07-16T20:42:58.854Z,57.97
2018-07-16T20:45:34.507Z,57.18
2018-07-16T20:48:09.141Z,57.27
2018-07-16T20:50:40.482Z,57.09
2018-07-16T20:53:13.290Z,57.72
2018-07-16T20:55:48.568Z,58.58
2018-07-16T20:58:24.565Z,58.83
2018-07-16T21:01:01.040Z,57.70
2018-07-16T21:03:33.176Z,58.52
2018-07-16T21:06:07.371Z,58.29
2018-07-16T21:08:38.805Z,57.84
2018-07-16T21:11:10.416Z,58.23
2018-07-16T21:13:41.862Z,58.16
2018-07-16T21:16:13.987Z,58.01
2018-07-16T21:18:47.742Z,58.83
2018-07-16T21:21:18.961Z,58.36
2018-07-16T21:23:50.356Z,59.12
2018-07-16T21:26:21.336Z,59.56
2018-07-16T21:28:53.136Z,59.67
2018-07-16T21:31:24.102Z,59.84
2018-07-16T21:33:55.418Z,60.08
2018-07-16T21:36:26.404Z,60.24
2018-07-16T21:38:58.588Z,60.74
2018-07-16T21:41:31.389Z,60.85
2018-07-16T21:44:02.460Z,61.29
2018-07-16T21:46:33.499Z,61.01
2018-07-16T21:49:04.476Z,60.85
2018-07-16T21:51:35.846Z,61.13
2018-07-16T21:54:07.130Z,61.77
2018-07-16T21:56:38.384Z,60.57
2018-07-16T21:59:09.635Z,60.09
2018-07-16T22:01:40.824Z,59.62
2018-07-16T22:04:12.908Z,59.58
2018-07-16T22:06:44.160Z,58.76
2018-07-16T22:09:15.471Z,59.10
2018-07-16T22:11:50.648Z,58.59
2018-07-16T22:14:21.892Z,58.28
2018-07-16T22:16:53.521Z,58.03
2018-07-16T22:19:24.566Z,57.10
2018-07-16T22:21:56.691Z,56.59
2018-07-16T22:24:27.611Z,55.83
2018-07-16T22:26:58.870Z,54.52
2018-07-16T22:29:29.998Z,54.18
2018-07-16T22:32:00.975Z,53.55
2018-07-16T22:34:32.788Z,53.34
2018-07-16T22:37:03.687Z,51.95
2018-07-16T22:39:35.710Z,51.88
2018-07-16T22:42:07.525Z,51.69
2018-07-16T22:44:38.418Z,51.11
2018-07-16T22:47:10.285Z,50.12
2018-07-16T22:49:41.419Z,50.25
2018-07-16T22:52:12.767Z,50.22
2018-07-16T22:54:44.094Z,49.74
2018-07-16T22:57:15.547Z,49.67
2018-07-16T22:59:47.253Z,49.96
2018-07-16T23:02:18.696Z,49.36
2018-07-16T23:04:49.922Z,49.88
2018-07-16T23:07:21.044Z,48.93
2018-07-16T23:09:52.114Z,48.82
2018-07-16T23:12:23.337Z,49.47
2018-07-16T23:14:54.618Z,49.51
2018-07-16T23:17:26.445Z,49.33
2018-07-16T23:19:57.617Z,49.30
2018-07-16T23:22:28.715Z,49.73
2018-07-16T23:25:00.491Z,49.36
2018-07-16T23:27:32.565Z,50.06
2018-07-16T23:30:04.461Z,50.05
2018-07-16T23:32:36.228Z,49.62
2018-07-16T23:35:07.357Z,49.99
2018-07-16T23:37:39.671Z,49.72
2018-07-16T23:40:11.357Z,50.15
2018-07-16T23:42:43.658Z,50.46
2018-07-16T23:45:16.550Z,50.30
2018-07-16T23:47:47.435Z,49.22
2018-07-16T23:50:18.749Z,49.13
2018-07-16T23:52:50.593Z,48.51
2018-07-16T23:55:21.920Z,48.59
